createdAt,value
2022-11-24T00:00:53.953Z,99483.13
2022-11-24T00:03:21.287Z,99498.13
2022-11-24T00:05:48.298Z,99492.56
2022-11-24T00:08:15.363Z,99497.28
2022-11-24T00:10:42.016Z,99495.47
2022-11-24T00:13:08.839Z,99503.63
2022-11-24T00:15:35.514Z,99499.34
2022-11-24T00:18:02.391Z,99507.00
2022-11-24T00:20:29.124Z,99514.19
2022-11-24T00:22:56.249Z,99513.06
2022-11-24T00:25:23.016Z,99518.69
2022-11-24T00:27:49.734Z,99516.72
2022-11-24T00:30:16.463Z,99520.97
2022-11-24T00:32:43.137Z,99519.16
2022-11-24T00:35:10.256Z,99520.28
2022-11-24T00:37:36.978Z,99521.97
2022-11-24T00:40:03.771Z,99521.00
2022-11-24T00:42:30.582Z,99521.94
2022-11-24T00:44:57.417Z,99531.78
2022-11-24T00:47:24.257Z,99536.06
2022-11-24T00:49:51.057Z,99534.34
2022-11-24T00:52:17.741Z,99536.94
2022-11-24T00:54:44.497Z,99535.13
2022-11-24T00:57:11.181Z,99536.13
2022-11-24T00:59:37.880Z,99545.88
2022-11-24T01:02:04.667Z,99538.00
2022-11-24T01:04:31.712Z,99539.88
2022-11-24T01:06:58.810Z,99540.84
2022-11-24T01:09:25.470Z,99534.91
2022-11-24T01:12:04.537Z,99542.59
2022-11-24T01:14:32.024Z,99545.03
2022-11-24T01:16:58.994Z,99540.19
2022-11-24T01:19:25.736Z,99556.47
2022-11-24T01:21:52.622Z,99555.38
2022-11-24T01:24:19.486Z,99554.47
2022-11-24T01:26:46.927Z,99556.16
2022-11-24T01:29:13.842Z,99569.50
2022-11-24T01:31:41.945Z,99564.16
2022-11-24T01:34:08.831Z,99561.53
2022-11-24T01:36:35.541Z,99560.38
2022-11-24T01:39:02.420Z,99565.06
2022-11-24T01:41:29.146Z,99555.31
2022-11-24T01:43:56.572Z,99558.69
2022-11-24T01:46:47.001Z,99567.59
2022-11-24T01:49:13.772Z,99557.25
2022-11-24T01:51:45.167Z,99563.72
2022-11-24T01:54:18.689Z,99555.97
2022-11-24T01:56:47.299Z,99566.25
2022-11-24T01:59:15.770Z,99565.56
2022-11-24T02:01:43.444Z,99559.25
2022-11-24T02:04:14.793Z,99574.28
2022-11-24T02:06:42.885Z,99575.75
2022-11-24T02:09:12.316Z,99574.56
2022-11-24T02:11:39.896Z,99581.66
2022-11-24T02:14:07.793Z,99577.25
2022-11-24T02:16:36.140Z,99575.97
2022-11-24T02:19:11.634Z,99577.13
2022-11-24T02:21:38.375Z,99577.34
2022-11-24T02:24:13.221Z,99584.97
2022-11-24T02:26:47.873Z,99588.53
2022-11-24T02:29:15.325Z,99595.75
2022-11-24T02:31:45.378Z,99600.97
2022-11-24T02:34:12.090Z,99592.78
2022-11-24T02:36:38.728Z,99591.25
2022-11-24T02:39:12.716Z,99587.34
2022-11-24T02:41:41.311Z,99578.59
2022-11-24T02:44:08.025Z,99580.38
2022-11-24T02:46:34.762Z,99574.19
2022-11-24T02:49:01.526Z,99581.25
2022-11-24T02:51:29.596Z,99579.56
2022-11-24T02:53:56.297Z,99572.66
2022-11-24T02:56:22.983Z,99572.63
2022-11-24T02:58:49.692Z,99564.00
2022-11-24T03:01:16.396Z,99565.63
2022-11-24T03:03:43.137Z,99555.38
2022-11-24T03:06:09.918Z,99557.44
2022-11-24T03:08:36.610Z,99552.66
2022-11-24T03:11:03.833Z,99552.63
2022-11-24T03:13:30.521Z,99548.12
2022-11-24T03:15:57.347Z,99556.94
2022-11-24T03:18:24.042Z,99568.41
2022-11-24T03:20:50.766Z,99573.66
2022-11-24T03:23:17.435Z,99571.84
2022-11-24T03:25:44.243Z,99578.88
2022-11-24T03:28:10.957Z,99587.41
2022-11-24T03:30:37.647Z,99598.84
2022-11-24T03:33:05.329Z,99599.66
2022-11-24T03:35:32.097Z,99591.16
2022-11-24T03:37:58.913Z,99599.19
2022-11-24T03:40:25.876Z,99607.38
2022-11-24T03:42:52.602Z,99600.41
2022-11-24T03:48:07.208Z,99608.56
2022-11-24T03:50:33.866Z,99607.34
2022-11-24T03:53:00.619Z,99604.75
2022-11-24T03:55:27.452Z,99617.16
2022-11-24T03:57:54.242Z,99619.81
2022-11-24T04:00:21.082Z,99616.19
2022-11-24T04:02:48.974Z,99608.31
2022-11-24T04:05:21.090Z,99624.28
2022-11-24T04:07:48.446Z,99627.97
2022-11-24T04:10:15.329Z,99636.72
2022-11-24T04:12:44.716Z,99630.50
2022-11-24T04:15:12.942Z,99631.34
2022-11-24T04:17:39.817Z,99630.75
2022-11-24T04:20:07.000Z,99633.97
2022-11-24T04:22:33.857Z,99644.72
2022-11-24T04:25:00.648Z,99648.31
2022-11-24T04:27:27.376Z,99648.31
2022-11-24T04:29:54.052Z,99649.13
2022-11-24T04:32:21.032Z,99644.88
2022-11-24T04:34:47.733Z,99649.97
2022-11-24T04:37:14.431Z,99653.38
2022-11-24T04:39:41.092Z,99661.09
2022-11-24T04:42:07.806Z,99656.75
2022-11-24T04:44:34.676Z,99664.59
2022-11-24T04:47:01.756Z,99669.16
2022-11-24T04:49:28.556Z,99670.84
2022-11-24T04:51:55.249Z,99677.72
2022-11-24T04:54:21.950Z,99682.94
2022-11-24T04:56:52.071Z,99686.28
2022-11-24T04:59:19.301Z,99696.72
2022-11-24T05:01:46.687Z,99692.41
2022-11-24T05:04:14.759Z,99690.00
2022-11-24T05:06:41.520Z,99686.59
2022-11-24T05:09:08.296Z,99703.78
2022-11-24T05:11:35.102Z,99706.38
2022-11-24T05:14:02.182Z,99710.87
2022-11-24T05:16:28.993Z,99716.84
2022-11-24T05:18:55.677Z,99718.66
2022-11-24T05:21:22.314Z,99723.81
2022-11-24T05:23:49.186Z,99724.63
2022-11-24T05:26:15.888Z,99727.53
2022-11-24T05:28:42.588Z,99731.84
2022-11-24T05:31:09.336Z,99738.72
2022-11-24T05:33:37.209Z,99746.62
2022-11-24T05:36:04.988Z,99749.34
2022-11-24T05:38:32.389Z,99751.81
2022-11-24T05:41:02.897Z,99751.84
2022-11-24T05:43:30.138Z,99752.62
2022-11-24T05:46:00.763Z,99748.28
2022-11-24T05:48:27.874Z,99752.78
2022-11-24T05:50:55.974Z,99752.69
2022-11-24T05:53:22.588Z,99752.97
2022-11-24T05:55:49.442Z,99745.88
2022-11-24T05:58:16.168Z,99762.34
2022-11-24T06:00:42.913Z,99761.38
2022-11-24T06:03:10.944Z,99772.75
2022-11-24T06:05:37.675Z,99771.84
2022-11-24T06:08:04.628Z,99783.12
2022-11-24T06:10:31.572Z,99786.69
2022-11-24T06:12:58.395Z,99794.59
2022-11-24T06:15:25.043Z,99798.06
2022-11-24T06:17:55.993Z,99802.56
2022-11-24T06:20:25.147Z,99807.69
2022-11-24T06:22:57.538Z,99809.34
2022-11-24T06:25:24.241Z,99805.00
2022-11-24T06:27:51.127Z,99818.09
2022-11-24T06:30:17.802Z,99825.19
2022-11-24T06:32:49.711Z,99833.87
2022-11-24T06:35:16.894Z,99839.97
2022-11-24T06:37:43.734Z,99848.63
2022-11-24T06:40:10.634Z,99841.59
2022-11-24T06:42:37.828Z,99846.84
2022-11-24T06:45:08.987Z,99837.22
2022-11-24T06:47:36.357Z,99848.47
2022-11-24T06:50:03.277Z,99849.28
2022-11-24T06:52:29.960Z,99860.84
2022-11-24T06:54:57.455Z,99859.88
2022-11-24T06:57:24.363Z,99865.00
2022-11-24T06:59:51.254Z,99867.59
2022-11-24T07:02:17.956Z,99865.94
2022-11-24T07:04:44.847Z,99872.94
2022-11-24T07:07:11.909Z,99886.91
2022-11-24T07:09:38.601Z,99885.13
2022-11-24T07:12:06.352Z,99884.31
2022-11-24T07:14:33.533Z,99897.44
2022-11-24T07:17:02.738Z,99897.41
2022-11-24T07:19:29.677Z,99895.06
2022-11-24T07:21:56.936Z,99885.56
2022-11-24T07:24:23.799Z,99888.16
2022-11-24T07:26:50.605Z,99886.41
2022-11-24T07:29:17.334Z,99888.09
2022-11-24T07:31:45.814Z,99893.28
2022-11-24T07:34:14.916Z,99895.00
2022-11-24T07:36:41.975Z,99899.88
2022-11-24T07:39:08.662Z,99890.72
2022-11-24T07:41:35.356Z,99901.47
2022-11-24T07:44:02.328Z,99902.00
2022-11-24T07:46:29.044Z,99908.53
2022-11-24T07:48:55.755Z,99907.81
2022-11-24T07:51:22.564Z,99904.84
2022-11-24T07:53:49.605Z,99909.16
2022-11-24T07:56:16.396Z,99914.28
2022-11-24T07:58:45.934Z,99915.88
2022-11-24T08:01:16.747Z,99922.38
2022-11-24T08:03:44.106Z,99931.63
2022-11-24T08:06:31.919Z,99927.47
2022-11-24T08:08:58.558Z,99931.34
2022-11-24T08:11:25.720Z,99939.50
2022-11-24T08:13:52.796Z,99941.41
2022-11-24T08:16:20.312Z,99945.91
2022-11-24T08:18:54.249Z,99943.97
2022-11-24T08:21:23.409Z,99949.22
2022-11-24T08:23:50.511Z,99949.44
2022-11-24T08:26:19.244Z,99951.53
2022-11-24T08:28:46.973Z,99952.59
2022-11-24T08:31:16.612Z,99963.84
2022-11-24T08:33:43.717Z,99966.22
2022-11-24T08:36:11.832Z,99965.97
2022-11-24T08:38:38.963Z,99976.56
2022-11-24T08:41:07.314Z,99979.41
2022-11-24T08:43:34.242Z,99975.78
2022-11-24T08:46:06.542Z,99976.75
2022-11-24T08:48:33.619Z,99973.47
2022-11-24T08:51:07.257Z,99981.59
2022-11-24T08:53:33.959Z,99981.50
2022-11-24T08:56:01.113Z,99988.44
2022-11-24T08:58:30.616Z,99998.41
2022-11-24T09:01:03.949Z,99992.13
2022-11-24T09:03:30.742Z,99990.41
2022-11-24T09:05:57.392Z,99995.34
2022-11-24T09:08:24.119Z,99996.72
2022-11-24T09:10:51.604Z,99997.28
2022-11-24T09:13:18.644Z,99990.16
2022-11-24T09:15:45.436Z,99984.31
2022-11-24T09:18:12.443Z,99990.44
2022-11-24T09:20:39.096Z,99990.47
2022-11-24T09:23:05.799Z,99989.47
2022-11-24T09:25:32.556Z,99988.03
2022-11-24T09:28:00.277Z,99983.25
2022-11-24T09:30:27.428Z,99993.91
2022-11-24T09:32:55.538Z,100000.44
2022-11-24T09:35:22.405Z,99992.09
2022-11-24T09:37:49.353Z,99997.62
2022-11-24T09:40:16.807Z,99991.84
2022-11-24T09:42:52.121Z,99995.13
2022-11-24T09:45:56.986Z,99988.75
2022-11-24T09:48:21.702Z,99997.50
2022-11-24T09:50:49.399Z,99997.06
2022-11-24T09:53:25.720Z,99994.37
2022-11-24T09:55:56.679Z,99999.06
2022-11-24T09:58:42.558Z,100005.28
2022-11-24T10:01:15.586Z,100006.22
2022-11-24T10:03:46.320Z,100017.25
2022-11-24T10:06:22.040Z,100013.28
2022-11-24T10:09:02.191Z,100017.56
2022-11-24T10:11:47.109Z,100007.41
2022-11-24T10:14:22.965Z,100009.41
2022-11-24T10:16:57.736Z,100008.50
2022-11-24T10:19:36.894Z,100010.97
2022-11-24T10:22:23.175Z,100008.72
2022-11-24T10:24:55.946Z,100009.47
2022-11-24T10:27:31.073Z,100014.44
2022-11-24T10:29:59.596Z,100015.25
2022-11-24T10:32:31.297Z,100011.06
2022-11-24T10:35:00.794Z,100016.94
2022-11-24T10:37:41.120Z,100006.47
2022-11-24T10:40:33.483Z,100007.00
2022-11-24T10:43:01.299Z,100011.47
2022-11-24T10:45:28.757Z,100010.59
2022-11-24T10:47:55.588Z,100010.03
2022-11-24T10:50:24.069Z,100013.53
2022-11-24T10:52:53.793Z,100013.09
2022-11-24T10:55:21.794Z,100016.91
2022-11-24T10:57:48.638Z,100020.97
2022-11-24T11:00:18.722Z,100027.53
2022-11-24T11:02:46.176Z,100022.47
2022-11-24T11:05:31.856Z,100025.56
2022-11-24T11:08:13.863Z,100018.16
2022-11-24T11:10:41.851Z,100024.66
2022-11-24T11:13:25.374Z,100020.31
2022-11-24T11:15:52.346Z,100023.47
2022-11-24T11:18:20.435Z,100029.00
2022-11-24T11:20:52.048Z,100035.31
2022-11-24T11:23:29.457Z,100030.09
2022-11-24T11:26:14.687Z,100029.59
2022-11-24T11:28:41.355Z,100026.72
2022-11-24T11:31:21.458Z,100029.38
2022-11-24T11:34:06.205Z,100034.03
2022-11-24T11:36:45.241Z,100030.03
2022-11-24T11:39:21.313Z,100033.72
2022-11-24T11:41:49.968Z,100037.56
2022-11-24T11:44:16.747Z,100033.31
2022-11-24T11:46:44.158Z,100037.03
2022-11-24T11:49:13.094Z,100033.66
2022-11-24T11:51:42.671Z,100035.12
2022-11-24T11:54:26.329Z,100032.28
2022-11-24T11:57:06.912Z,100028.28
2022-11-24T11:59:36.994Z,100022.31
2022-11-24T12:02:03.756Z,100023.41
2022-11-24T12:04:42.706Z,100032.56
2022-11-24T12:07:24.748Z,100034.50
2022-11-24T12:10:03.509Z,100040.47
2022-11-24T12:12:33.278Z,100034.16
2022-11-24T12:15:15.304Z,100038.84
2022-11-24T12:17:50.259Z,100033.19
2022-11-24T12:20:23.226Z,100040.91
2022-11-24T12:23:11.676Z,100051.81
2022-11-24T12:25:46.530Z,100048.19
2022-11-24T12:28:17.833Z,100055.62
2022-11-24T12:30:44.744Z,100059.12
2022-11-24T12:33:11.451Z,100059.00
2022-11-24T12:35:52.871Z,100052.44
2022-11-24T12:38:38.637Z,100060.28
2022-11-24T12:41:40.358Z,100070.13
2022-11-24T12:44:03.138Z,100061.19
2022-11-24T12:46:29.950Z,100059.44
2022-11-24T12:49:03.770Z,100055.31
2022-11-24T12:51:42.378Z,100047.00
2022-11-24T12:54:13.954Z,100051.53
2022-11-24T12:56:47.413Z,100043.50
2022-11-24T12:59:14.177Z,100043.50
2022-11-24T13:01:47.215Z,100033.41
2022-11-24T13:04:14.357Z,100036.28
2022-11-24T13:06:49.277Z,100036.03
2022-11-24T13:09:16.860Z,100030.78
2022-11-24T13:11:46.720Z,100034.25
2022-11-24T13:14:23.907Z,100043.63
2022-11-24T13:17:27.934Z,100046.66
2022-11-24T13:19:45.520Z,100035.59
2022-11-24T13:22:18.232Z,100043.03
2022-11-24T13:25:03.581Z,100046.28
2022-11-24T13:27:40.321Z,100048.41
2022-11-24T13:30:27.427Z,100048.66
2022-11-24T13:33:00.479Z,100047.25
2022-11-24T13:35:27.888Z,100065.84
2022-11-24T13:37:54.911Z,100057.53
2022-11-24T13:40:22.907Z,100053.94
2022-11-24T13:43:01.568Z,100053.28
2022-11-24T13:45:40.499Z,100055.69
2022-11-24T13:48:20.481Z,100055.22
2022-11-24T13:50:51.247Z,100054.03
2022-11-24T13:53:36.424Z,100060.50
2022-11-24T13:56:03.255Z,100064.59
2022-11-24T13:58:32.248Z,100066.34
2022-11-24T14:01:16.292Z,100069.47
2022-11-24T14:04:21.398Z,100076.84
2022-11-24T14:06:39.853Z,100067.37
2022-11-24T14:09:27.006Z,100079.31
2022-11-24T14:12:02.903Z,100072.00
2022-11-24T14:14:32.042Z,100085.25
2022-11-24T14:17:16.541Z,100086.66
2022-11-24T14:19:47.121Z,100080.03
2022-11-24T14:22:19.199Z,100082.28
2022-11-24T14:24:47.764Z,100082.81
2022-11-24T14:27:16.619Z,100096.72
2022-11-24T14:29:57.168Z,100094.50
2022-11-24T14:32:24.103Z,100095.44
2022-11-24T14:34:52.379Z,100089.16
2022-11-24T14:37:20.477Z,100096.78
2022-11-24T14:39:47.845Z,100095.50
2022-11-24T14:42:22.501Z,100093.59
2022-11-24T14:44:53.076Z,100095.16
2022-11-24T14:47:33.586Z,100105.75
2022-11-24T14:50:08.434Z,100094.59
2022-11-24T14:52:35.575Z,100105.84
2022-11-24T14:55:21.309Z,100103.88
2022-11-24T14:57:49.383Z,100110.44
2022-11-24T15:00:19.686Z,100122.00
2022-11-24T15:02:52.433Z,100115.66
2022-11-24T15:05:23.185Z,100110.91
2022-11-24T15:07:51.904Z,100105.75
2022-11-24T15:10:20.941Z,100117.47
2022-11-24T15:12:53.688Z,100121.87
2022-11-24T15:15:23.678Z,100113.75
2022-11-24T15:17:50.497Z,100119.72
2022-11-24T15:20:35.686Z,100117.81
2022-11-24T15:23:20.817Z,100125.31
2022-11-24T15:25:47.792Z,100123.66
2022-11-24T15:28:14.732Z,100130.69
2022-11-24T15:30:41.556Z,100138.34
2022-11-24T15:33:16.098Z,100135.75
2022-11-24T15:35:43.306Z,100140.09
2022-11-24T15:38:10.358Z,100132.97
2022-11-24T15:40:38.180Z,100140.69
2022-11-24T15:43:16.924Z,100138.91
2022-11-24T15:45:43.752Z,100145.81
2022-11-24T15:48:14.812Z,100155.53
2022-11-24T15:50:44.935Z,100158.16
2022-11-24T15:53:20.503Z,100169.63
2022-11-24T15:55:47.874Z,100175.16
2022-11-24T15:58:15.352Z,100181.06
2022-11-24T16:00:42.976Z,100181.03
2022-11-24T16:03:44.519Z,100176.88
2022-11-24T16:05:57.592Z,100174.34
2022-11-24T16:08:24.346Z,100170.81
2022-11-24T16:10:51.629Z,100183.09
2022-11-24T16:13:18.520Z,100188.44
2022-11-24T16:15:45.788Z,100204.91
2022-11-24T16:18:14.361Z,100207.28
2022-11-24T16:20:41.188Z,100210.94
2022-11-24T16:23:08.078Z,100210.25
2022-11-24T16:25:34.822Z,100205.03
2022-11-24T16:28:01.665Z,100193.47
2022-11-24T16:30:28.850Z,100188.16
2022-11-24T16:32:55.741Z,100192.50
2022-11-24T16:35:22.386Z,100202.28
2022-11-24T16:37:49.322Z,100208.31
2022-11-24T16:40:16.254Z,100211.91
2022-11-24T16:42:43.023Z,100214.78
2022-11-24T16:45:12.213Z,100217.31
2022-11-24T16:47:40.419Z,100221.72
2022-11-24T16:50:08.065Z,100212.34
2022-11-24T16:52:34.898Z,100219.91
2022-11-24T16:55:02.221Z,100212.75
2022-11-24T16:57:29.113Z,100217.00
2022-11-24T16:59:56.504Z,100222.84
2022-11-24T17:02:23.736Z,100224.56
2022-11-24T17:04:52.736Z,100225.50
2022-11-24T17:07:20.598Z,100230.75
2022-11-24T17:09:47.562Z,100237.66
2022-11-24T17:12:14.550Z,100235.97
2022-11-24T17:14:41.458Z,100229.97
2022-11-24T17:17:08.395Z,100231.66
2022-11-24T17:19:35.304Z,100235.03
2022-11-24T17:22:02.352Z,100226.44
2022-11-24T17:24:29.187Z,100229.09
2022-11-24T17:26:55.995Z,100231.69
2022-11-24T17:29:23.742Z,100235.31
2022-11-24T17:31:50.714Z,100231.66
2022-11-24T17:34:17.653Z,100238.75
2022-11-24T17:36:46.464Z,100239.63
2022-11-24T17:39:13.902Z,100244.25
2022-11-24T17:41:40.634Z,100258.19
2022-11-24T17:44:09.074Z,100265.28
2022-11-24T17:46:37.301Z,100270.75
2022-11-24T17:49:06.899Z,100284.63
2022-11-24T17:51:33.752Z,100279.44
2022-11-24T17:54:05.964Z,100275.94
2022-11-24T17:56:46.880Z,100266.38
2022-11-24T17:59:13.717Z,100276.97
2022-11-24T18:01:40.964Z,100271.72
2022-11-24T18:04:07.781Z,100274.34
2022-11-24T18:06:35.401Z,100283.94
2022-11-24T18:09:02.338Z,100298.91
2022-11-24T18:11:31.861Z,100303.22
2022-11-24T18:14:01.619Z,100310.84
2022-11-24T18:16:30.673Z,100311.41
2022-11-24T18:19:07.838Z,100293.69
2022-11-24T18:21:35.150Z,100300.03
2022-11-24T18:24:02.230Z,100304.28
2022-11-24T18:26:29.234Z,100292.94
2022-11-24T18:28:56.080Z,100292.22
2022-11-24T18:31:22.999Z,100296.34
2022-11-24T18:33:49.824Z,100305.09
2022-11-24T18:36:18.142Z,100308.72
2022-11-24T18:38:45.379Z,100323.56
2022-11-24T18:41:13.259Z,100323.62
2022-11-24T18:43:41.658Z,100323.56
2022-11-24T18:46:13.415Z,100313.78
2022-11-24T18:48:40.617Z,100318.28
2022-11-24T18:51:08.878Z,100330.56
2022-11-24T18:53:35.808Z,100333.41
2022-11-24T18:56:04.113Z,100326.38
2022-11-24T18:58:31.860Z,100319.31
2022-11-24T19:01:08.268Z,100313.25
2022-11-24T19:03:43.566Z,100325.59
2022-11-24T19:06:14.787Z,100325.47
2022-11-24T19:08:42.102Z,100341.25
2022-11-24T19:11:15.895Z,100344.72
2022-11-24T19:13:42.691Z,100339.50
2022-11-24T19:16:12.945Z,100346.47
2022-11-24T19:18:39.884Z,100345.66
2022-11-24T19:21:07.311Z,100353.50
2022-11-24T19:23:34.259Z,100354.44
2022-11-24T19:26:01.975Z,100357.03
2022-11-24T19:28:29.554Z,100358.72
2022-11-24T19:31:02.693Z,100359.63
2022-11-24T19:33:29.739Z,100360.47
2022-11-24T19:36:00.745Z,100366.59
2022-11-24T19:38:30.093Z,100372.78
2022-11-24T19:41:04.778Z,100384.12
2022-11-24T19:43:32.000Z,100382.38
2022-11-24T19:46:08.344Z,100378.00
2022-11-24T19:48:39.728Z,100383.19
2022-11-24T19:51:07.859Z,100391.12
2022-11-24T19:53:35.250Z,100391.09
2022-11-24T19:56:09.416Z,100398.97
2022-11-24T19:58:37.060Z,100394.66
2022-11-24T20:01:08.308Z,100399.91
2022-11-24T20:03:36.501Z,100404.28
2022-11-24T20:06:03.749Z,100413.91
2022-11-24T20:08:34.415Z,100408.62
2022-11-24T20:11:04.474Z,100415.63
2022-11-24T20:13:31.704Z,100412.12
2022-11-24T20:16:12.321Z,100413.87
2022-11-24T20:18:42.505Z,100413.00
2022-11-24T20:21:11.394Z,100415.63
2022-11-24T20:23:38.650Z,100419.16
2022-11-24T20:26:10.105Z,100422.66
2022-11-24T20:28:36.960Z,100421.78
2022-11-24T20:31:08.312Z,100413.87
2022-11-24T20:33:35.755Z,100420.00
2022-11-24T20:36:04.021Z,100419.13
2022-11-24T20:38:31.106Z,100422.66
2022-11-24T20:41:07.393Z,100436.66
2022-11-24T20:43:36.058Z,100433.22
2022-11-24T20:46:04.283Z,100431.44
2022-11-24T20:48:31.169Z,100429.66
2022-11-24T20:51:02.861Z,100427.03
2022-11-24T20:53:29.681Z,100426.16
2022-11-24T20:56:06.153Z,100423.56
2022-11-24T20:58:33.586Z,100427.97
2022-11-24T21:01:04.730Z,100428.00
2022-11-24T21:03:31.613Z,100433.25
2022-11-24T21:05:58.638Z,100428.00
2022-11-24T21:08:25.483Z,100435.00
2022-11-24T21:10:53.483Z,100439.41
2022-11-24T21:13:20.755Z,100442.84
2022-11-24T21:15:47.865Z,100446.34
2022-11-24T21:18:14.667Z,100452.53
2022-11-24T21:20:41.510Z,100452.53
2022-11-24T21:23:08.306Z,100445.50
2022-11-24T21:25:35.742Z,100437.66
2022-11-24T21:28:02.704Z,100445.53
2022-11-24T21:30:30.062Z,100447.31
2022-11-24T21:32:56.966Z,100446.38
2022-11-24T21:35:23.777Z,100450.75
2022-11-24T21:37:50.810Z,100445.53
2022-11-24T21:40:17.568Z,100450.75
2022-11-24T21:42:44.293Z,100448.16
2022-11-24T21:45:11.874Z,100453.38
2022-11-24T21:47:38.752Z,100453.41
2022-11-24T21:50:06.877Z,100463.03
2022-11-24T21:52:34.352Z,100474.41
2022-11-24T21:55:01.078Z,100464.81
2022-11-24T21:57:28.650Z,100476.16
2022-11-24T21:59:55.447Z,100468.28
2022-11-24T22:02:24.597Z,100467.41
2022-11-24T22:04:51.321Z,100473.53
2022-11-24T22:07:18.186Z,100477.03
2022-11-24T22:09:46.855Z,100480.53
2022-11-24T22:12:13.531Z,100482.28
2022-11-24T22:14:40.638Z,100477.91
2022-11-24T22:17:07.599Z,100481.41
2022-11-24T22:19:34.285Z,100479.66
2022-11-24T22:22:00.964Z,100484.03
2022-11-24T22:24:27.607Z,100475.25
2022-11-24T22:26:54.918Z,100473.50
2022-11-24T22:29:21.655Z,100482.28
2022-11-24T22:31:48.319Z,100478.75
2022-11-24T22:34:15.002Z,100483.16
2022-11-24T22:36:41.751Z,100485.75
2022-11-24T22:39:12.056Z,100488.34
2022-11-24T22:41:38.907Z,100486.09
2022-11-24T22:44:05.907Z,100491.47
2022-11-24T22:46:33.907Z,100490.94
2022-11-24T22:49:01.688Z,100482.25
2022-11-24T22:51:29.772Z,100497.06
2022-11-24T22:53:57.447Z,100490.16
2022-11-24T22:56:24.604Z,100488.37
2022-11-24T22:58:51.816Z,100501.50
2022-11-24T23:01:22.615Z,100496.28
2022-11-24T23:03:49.781Z,100498.00
2022-11-24T23:06:18.190Z,100506.72
2022-11-24T23:08:45.238Z,100493.56
2022-11-24T23:11:16.042Z,100499.50
2022-11-24T23:13:42.846Z,100507.59
2022-11-24T23:16:09.961Z,100510.19
2022-11-24T23:18:36.766Z,100509.31
2022-11-24T23:21:11.938Z,100513.66
2022-11-24T23:23:38.946Z,100505.00
2022-11-24T23:26:07.110Z,100509.38
2022-11-24T23:28:34.258Z,100508.47
2022-11-24T23:31:05.209Z,100505.00
2022-11-24T23:33:32.279Z,100514.56
2022-11-24T23:36:03.370Z,100516.22
2022-11-24T23:38:32.578Z,100517.16
2022-11-24T23:41:00.278Z,100510.22
2022-11-24T23:43:27.026Z,100519.88
2022-11-24T23:45:53.852Z,100517.22
2022-11-24T23:48:20.718Z,100524.22
2022-11-24T23:50:47.386Z,100527.75
2022-11-24T23:53:13.976Z,100523.34
2022-11-24T23:55:40.631Z,100524.25
2022-11-24T23:58:07.443Z,100519.88
